sensor_id;sensor_type;location;lat;lon;timestamp;temperature;humidity
74822;DHT22;63353;48.702;8.884;2023-04-09T00:01:31;2.80;99.90
74822;DHT22;63353;48.702;8.884;2023-04-09T00:03:56;2.80;99.90
74822;DHT22;63353;48.702;8.884;2023-04-09T00:06:22;2.80;99.90
74822;DHT22;63353;48.702;8.884;2023-04-09T00:08:50;2.70;99.90
74822;DHT22;63353;48.702;8.884;2023-04-09T00:11:16;2.80;99.90
74822;DHT22;63353;48.702;8.884;2023-04-09T00:13:45;2.70;99.90
74822;DHT22;63353;48.702;8.884;2023-04-09T00:16:10;2.80;99.90
74822;DHT22;63353;48.702;8.884;2023-04-09T00:18:39;2.70;99.90
74822;DHT22;63353;48.702;8.884;2023-04-09T00:21:11;2.80;99.90
74822;DHT22;63353;48.702;8.884;2023-04-09T00:23:43;2.60;99.90
74822;DHT22;63353;48.702;8.884;2023-04-09T00:26:08;2.60;99.90
74822;DHT22;63353;48.702;8.884;2023-04-09T00:28:37;2.60;99.90
74822;DHT22;63353;48.702;8.884;2023-04-09T00:31:14;2.70;99.90
74822;DHT22;63353;48.702;8.884;2023-04-09T00:33:40;2.70;99.90
74822;DHT22;63353;48.702;8.884;2023-04-09T00:36:09;2.70;99.90
74822;DHT22;63353;48.702;8.884;2023-04-09T00:38:35;2.70;99.90
74822;DHT22;63353;48.702;8.884;2023-04-09T00:41:03;2.70;99.90
74822;DHT22;63353;48.702;8.884;2023-04-09T00:43:29;2.70;99.90
74822;DHT22;63353;48.702;8.884;2023-04-09T00:46:00;2.70;99.90
74822;DHT22;63353;48.702;8.884;2023-04-09T00:48:26;2.70;99.90
74822;DHT22;63353;48.702;8.884;2023-04-09T00:50:58;2.70;99.90
74822;DHT22;63353;48.702;8.884;2023-04-09T00:53:27;2.80;99.90
74822;DHT22;63353;48.702;8.884;2023-04-09T00:55:54;2.80;99.90
74822;DHT22;63353;48.702;8.884;2023-04-09T00:58:20;2.80;99.90
74822;DHT22;63353;48.702;8.884;2023-04-09T01:00:45;2.90;99.90
74822;DHT22;63353;48.702;8.884;2023-04-09T01:03:11;2.90;99.90
74822;DHT22;63353;48.702;8.884;2023-04-09T01:05:40;2.90;99.90
74822;DHT22;63353;48.702;8.884;2023-04-09T01:11:37;2.90;99.90
74822;DHT22;63353;48.702;8.884;2023-04-09T01:17:20;3.00;99.90
74822;DHT22;63353;48.702;8.884;2023-04-09T01:28:21;3.10;99.90
74822;DHT22;63353;48.702;8.884;2023-04-09T01:31:08;3.10;99.90
74822;DHT22;63353;48.702;8.884;2023-04-09T01:33:40;3.20;99.90
74822;DHT22;63353;48.702;8.884;2023-04-09T01:36:09;3.20;99.90
74822;DHT22;63353;48.702;8.884;2023-04-09T01:38:38;3.20;99.90
74822;DHT22;63353;48.702;8.884;2023-04-09T01:41:06;3.30;99.90
74822;DHT22;63353;48.702;8.884;2023-04-09T01:43:32;3.30;99.90
74822;DHT22;63353;48.702;8.884;2023-04-09T01:46:00;3.30;99.90
74822;DHT22;63353;48.702;8.884;2023-04-09T01:48:30;3.40;99.90
74822;DHT22;63353;48.702;8.884;2023-04-09T01:51:00;3.40;99.90
74822;DHT22;63353;48.702;8.884;2023-04-09T01:53:26;3.40;99.90
74822;DHT22;63353;48.702;8.884;2023-04-09T01:55:53;3.40;99.90
74822;DHT22;63353;48.702;8.884;2023-04-09T01:58:24;3.40;99.90
74822;DHT22;63353;48.702;8.884;2023-04-09T02:00:51;3.40;99.90
74822;DHT22;63353;48.702;8.884;2023-04-09T02:03:29;3.40;99.90
74822;DHT22;63353;48.702;8.884;2023-04-09T02:06:12;3.40;99.90
74822;DHT22;63353;48.702;8.884;2023-04-09T02:08:43;3.40;99.90
74822;DHT22;63353;48.702;8.884;2023-04-09T02:11:14;3.40;99.90
74822;DHT22;63353;48.702;8.884;2023-04-09T02:13:41;3.40;99.90
74822;DHT22;63353;48.702;8.884;2023-04-09T02:16:09;3.40;99.90
74822;DHT22;63353;48.702;8.884;2023-04-09T02:18:35;3.40;99.90
74822;DHT22;63353;48.702;8.884;2023-04-09T02:21:04;3.40;99.90
74822;DHT22;63353;48.702;8.884;2023-04-09T02:23:33;3.40;99.90
74822;DHT22;63353;48.702;8.884;2023-04-09T02:26:05;3.40;99.90
74822;DHT22;63353;48.702;8.884;2023-04-09T02:28:40;3.40;99.90
74822;DHT22;63353;48.702;8.884;2023-04-09T02:31:05;3.40;99.90
74822;DHT22;63353;48.702;8.884;2023-04-09T02:33:34;3.30;99.90
74822;DHT22;63353;48.702;8.884;2023-04-09T02:36:00;3.40;99.90
74822;DHT22;63353;48.702;8.884;2023-04-09T02:38:25;3.40;99.90
74822;DHT22;63353;48.702;8.884;2023-04-09T02:40:51;3.40;99.90
74822;DHT22;63353;48.702;8.884;2023-04-09T02:43:20;3.40;99.90
74822;DHT22;63353;48.702;8.884;2023-04-09T02:45:54;3.40;99.90
74822;DHT22;63353;48.702;8.884;2023-04-09T02:48:22;3.40;99.90
74822;DHT22;63353;48.702;8.884;2023-04-09T02:50:51;3.30;99.90
74822;DHT22;63353;48.702;8.884;2023-04-09T02:53:17;3.30;99.90
74822;DHT22;63353;48.702;8.884;2023-04-09T02:55:45;3.30;99.90
74822;DHT22;63353;48.702;8.884;2023-04-09T02:58:14;3.30;99.90
74822;DHT22;63353;48.702;8.884;2023-04-09T03:00:40;3.30;99.90
74822;DHT22;63353;48.702;8.884;2023-04-09T03:03:05;3.30;99.90
74822;DHT22;63353;48.702;8.884;2023-04-09T03:05:31;3.30;99.90
74822;DHT22;63353;48.702;8.884;2023-04-09T03:07:56;3.30;99.90
74822;DHT22;63353;48.702;8.884;2023-04-09T03:10:22;3.30;99.90
74822;DHT22;63353;48.702;8.884;2023-04-09T03:12:57;3.30;99.90
74822;DHT22;63353;48.702;8.884;2023-04-09T03:15:22;3.20;99.90
74822;DHT22;63353;48.702;8.884;2023-04-09T03:17:51;3.20;99.90
74822;DHT22;63353;48.702;8.884;2023-04-09T03:20:19;3.10;99.90
74822;DHT22;63353;48.702;8.884;2023-04-09T03:22:45;3.10;99.90
74822;DHT22;63353;48.702;8.884;2023-04-09T03:25:17;3.00;99.90
74822;DHT22;63353;48.702;8.884;2023-04-09T03:27:45;3.00;99.90
74822;DHT22;63353;48.702;8.884;2023-04-09T03:30:16;2.90;99.90
74822;DHT22;63353;48.702;8.884;2023-04-09T03:32:42;2.90;99.90
74822;DHT22;63353;48.702;8.884;2023-04-09T03:35:08;2.80;99.90
74822;DHT22;63353;48.702;8.884;2023-04-09T03:37:33;2.80;99.90
74822;DHT22;63353;48.702;8.884;2023-04-09T03:39:59;2.80;99.90
74822;DHT22;63353;48.702;8.884;2023-04-09T03:42:25;2.60;99.90
74822;DHT22;63353;48.702;8.884;2023-04-09T03:44:52;2.60;99.90
74822;DHT22;63353;48.702;8.884;2023-04-09T03:47:22;2.60;99.90
74822;DHT22;63353;48.702;8.884;2023-04-09T03:49:54;2.60;99.90
74822;DHT22;63353;48.702;8.884;2023-04-09T03:52:22;2.60;99.90
74822;DHT22;63353;48.702;8.884;2023-04-09T03:54:54;2.60;99.90
74822;DHT22;63353;48.702;8.884;2023-04-09T03:57:19;2.60;99.90
74822;DHT22;63353;48.702;8.884;2023-04-09T03:59:48;2.60;99.90
74822;DHT22;63353;48.702;8.884;2023-04-09T04:02:13;2.60;99.90
74822;DHT22;63353;48.702;8.884;2023-04-09T04:04:40;2.60;99.90
74822;DHT22;63353;48.702;8.884;2023-04-09T04:07:12;2.60;99.90
74822;DHT22;63353;48.702;8.884;2023-04-09T04:09:38;2.60;99.90
74822;DHT22;63353;48.702;8.884;2023-04-09T04:12:03;2.60;99.90
74822;DHT22;63353;48.702;8.884;2023-04-09T04:14:29;2.60;99.90
74822;DHT22;63353;48.702;8.884;2023-04-09T04:16:54;2.60;99.90
74822;DHT22;63353;48.702;8.884;2023-04-09T04:19:23;2.60;99.90
74822;DHT22;63353;48.702;8.884;2023-04-09T04:21:52;2.50;99.90
74822;DHT22;63353;48.702;8.884;2023-04-09T04:24:17;2.50;99.90
74822;DHT22;63353;48.702;8.884;2023-04-09T04:26:46;2.50;99.90
74822;DHT22;63353;48.702;8.884;2023-04-09T04:29:12;2.40;99.90
74822;DHT22;63353;48.702;8.884;2023-04-09T04:31:41;2.40;99.90
74822;DHT22;63353;48.702;8.884;2023-04-09T04:34:07;2.40;99.90
74822;DHT22;63353;48.702;8.884;2023-04-09T04:36:36;2.30;99.90
74822;DHT22;63353;48.702;8.884;2023-04-09T04:39:02;2.30;99.90
74822;DHT22;63353;48.702;8.884;2023-04-09T04:41:33;2.30;99.90
74822;DHT22;63353;48.702;8.884;2023-04-09T04:44:11;2.30;99.90
74822;DHT22;63353;48.702;8.884;2023-04-09T04:46:37;2.30;99.90
74822;DHT22;63353;48.702;8.884;2023-04-09T04:49:11;2.30;99.90
74822;DHT22;63353;48.702;8.884;2023-04-09T04:51:37;2.30;99.90
74822;DHT22;63353;48.702;8.884;2023-04-09T04:54:03;2.40;99.90
74822;DHT22;63353;48.702;8.884;2023-04-09T04:56:29;2.40;99.90
74822;DHT22;63353;48.702;8.884;2023-04-09T04:59:00;2.50;99.90
74822;DHT22;63353;48.702;8.884;2023-04-09T05:01:35;2.60;99.90
74822;DHT22;63353;48.702;8.884;2023-04-09T05:04:01;2.60;99.90
74822;DHT22;63353;48.702;8.884;2023-04-09T05:06:34;2.60;99.90
74822;DHT22;63353;48.702;8.884;2023-04-09T05:09:18;2.60;99.90
74822;DHT22;63353;48.702;8.884;2023-04-09T05:11:44;2.70;99.90
74822;DHT22;63353;48.702;8.884;2023-04-09T05:14:09;2.70;99.90
74822;DHT22;63353;48.702;8.884;2023-04-09T05:16:38;2.70;99.90
74822;DHT22;63353;48.702;8.884;2023-04-09T05:19:04;2.80;99.90
74822;DHT22;63353;48.702;8.884;2023-04-09T05:21:41;2.80;99.90
74822;DHT22;63353;48.702;8.884;2023-04-09T05:24:08;2.80;99.90
74822;DHT22;63353;48.702;8.884;2023-04-09T05:26:37;2.80;99.90
74822;DHT22;63353;48.702;8.884;2023-04-09T05:29:11;2.90;99.90
74822;DHT22;63353;48.702;8.884;2023-04-09T05:31:37;2.90;99.90
74822;DHT22;63353;48.702;8.884;2023-04-09T05:34:04;3.10;99.90
74822;DHT22;63353;48.702;8.884;2023-04-09T05:36:42;3.00;99.90
74822;DHT22;63353;48.702;8.884;2023-04-09T05:39:08;3.00;99.90
74822;DHT22;63353;48.702;8.884;2023-04-09T05:41:35;2.90;99.90
74822;DHT22;63353;48.702;8.884;2023-04-09T05:44:02;3.00;99.90
74822;DHT22;63353;48.702;8.884;2023-04-09T05:46:34;3.00;99.90
74822;DHT22;63353;48.702;8.884;2023-04-09T05:49:03;2.90;99.90
74822;DHT22;63353;48.702;8.884;2023-04-09T05:51:31;2.80;99.90
74822;DHT22;63353;48.702;8.884;2023-04-09T05:54:03;2.80;99.90
74822;DHT22;63353;48.702;8.884;2023-04-09T05:56:31;2.80;99.90
74822;DHT22;63353;48.702;8.884;2023-04-09T05:59:00;2.80;99.90
74822;DHT22;63353;48.702;8.884;2023-04-09T06:01:28;2.80;99.90
74822;DHT22;63353;48.702;8.884;2023-04-09T06:03:57;2.80;99.90
74822;DHT22;63353;48.702;8.884;2023-04-09T06:06:25;2.80;99.90
74822;DHT22;63353;48.702;8.884;2023-04-09T06:08:57;2.90;99.90
74822;DHT22;63353;48.702;8.884;2023-04-09T06:11:33;3.00;99.90
74822;DHT22;63353;48.702;8.884;2023-04-09T06:14:05;3.00;99.90
74822;DHT22;63353;48.702;8.884;2023-04-09T06:16:40;3.10;99.90
74822;DHT22;63353;48.702;8.884;2023-04-09T06:19:06;3.20;99.90
74822;DHT22;63353;48.702;8.884;2023-04-09T06:21:38;3.30;99.90
74822;DHT22;63353;48.702;8.884;2023-04-09T06:24:20;3.40;99.90
74822;DHT22;63353;48.702;8.884;2023-04-09T06:26:45;3.60;99.90
74822;DHT22;63353;48.702;8.884;2023-04-09T06:29:14;3.70;99.90
74822;DHT22;63353;48.702;8.884;2023-04-09T06:31:40;3.90;99.90
74822;DHT22;63353;48.702;8.884;2023-04-09T06:34:06;4.10;99.90
74822;DHT22;63353;48.702;8.884;2023-04-09T06:36:32;4.30;99.90
74822;DHT22;63353;48.702;8.884;2023-04-09T06:38:58;4.50;99.90
74822;DHT22;63353;48.702;8.884;2023-04-09T06:41:24;4.70;99.90
74822;DHT22;63353;48.702;8.884;2023-04-09T06:43:54;4.90;99.90
74822;DHT22;63353;48.702;8.884;2023-04-09T06:46:19;5.30;99.90
74822;DHT22;63353;48.702;8.884;2023-04-09T06:48:46;5.70;99.90
74822;DHT22;63353;48.702;8.884;2023-04-09T06:51:14;6.00;99.90
74822;DHT22;63353;48.702;8.884;2023-04-09T06:53:40;6.30;99.90
74822;DHT22;63353;48.702;8.884;2023-04-09T06:56:11;6.40;99.90
74822;DHT22;63353;48.702;8.884;2023-04-09T06:58:37;6.60;99.90
74822;DHT22;63353;48.702;8.884;2023-04-09T07:01:03;6.80;99.90
74822;DHT22;63353;48.702;8.884;2023-04-09T07:03:37;6.90;99.90
74822;DHT22;63353;48.702;8.884;2023-04-09T07:06:03;6.90;99.90
74822;DHT22;63353;48.702;8.884;2023-04-09T07:08:32;6.90;99.90
74822;DHT22;63353;48.702;8.884;2023-04-09T07:10:57;7.00;99.90
74822;DHT22;63353;48.702;8.884;2023-04-09T07:13:23;7.30;99.90
74822;DHT22;63353;48.702;8.884;2023-04-09T07:15:52;7.40;99.90
74822;DHT22;63353;48.702;8.884;2023-04-09T07:18:29;7.50;99.90
74822;DHT22;63353;48.702;8.884;2023-04-09T07:21:04;7.70;99.90
74822;DHT22;63353;48.702;8.884;2023-04-09T07:23:33;7.90;99.90
74822;DHT22;63353;48.702;8.884;2023-04-09T07:26:02;7.90;99.90
74822;DHT22;63353;48.702;8.884;2023-04-09T07:28:34;8.20;99.90
74822;DHT22;63353;48.702;8.884;2023-04-09T07:31:03;8.40;99.90
74822;DHT22;63353;48.702;8.884;2023-04-09T07:33:29;8.60;99.90
74822;DHT22;63353;48.702;8.884;2023-04-09T07:35:58;8.70;99.90
74822;DHT22;63353;48.702;8.884;2023-04-09T07:38:23;8.60;99.90
74822;DHT22;63353;48.702;8.884;2023-04-09T07:40:52;8.40;99.90
74822;DHT22;63353;48.702;8.884;2023-04-09T07:43:24;8.30;99.90
74822;DHT22;63353;48.702;8.884;2023-04-09T07:45:55;8.30;99.90
74822;DHT22;63353;48.702;8.884;2023-04-09T07:48:21;8.40;99.90
74822;DHT22;63353;48.702;8.884;2023-04-09T07:50:47;8.40;99.90
74822;DHT22;63353;48.702;8.884;2023-04-09T07:53:12;8.60;99.90
74822;DHT22;63353;48.702;8.884;2023-04-09T07:55:39;8.70;99.90
74822;DHT22;63353;48.702;8.884;2023-04-09T07:58:05;8.60;99.90
74822;DHT22;63353;48.702;8.884;2023-04-09T08:00:34;8.80;99.90
74822;DHT22;63353;48.702;8.884;2023-04-09T08:03:00;9.00;99.90
74822;DHT22;63353;48.702;8.884;2023-04-09T08:05:33;9.00;99.90
74822;DHT22;63353;48.702;8.884;2023-04-09T08:07:59;9.30;99.90
74822;DHT22;63353;48.702;8.884;2023-04-09T08:10:31;9.50;99.90
74822;DHT22;63353;48.702;8.884;2023-04-09T08:13:02;10.00;99.90
74822;DHT22;63353;48.702;8.884;2023-04-09T08:15:28;10.70;99.90
74822;DHT22;63353;48.702;8.884;2023-04-09T08:17:56;11.20;99.90
74822;DHT22;63353;48.702;8.884;2023-04-09T08:20:25;11.30;99.90
74822;DHT22;63353;48.702;8.884;2023-04-09T08:23:01;11.20;99.90
74822;DHT22;63353;48.702;8.884;2023-04-09T08:25:26;11.50;99.90
74822;DHT22;63353;48.702;8.884;2023-04-09T08:28:01;11.80;99.90
74822;DHT22;63353;48.702;8.884;2023-04-09T08:30:29;11.90;99.90
74822;DHT22;63353;48.702;8.884;2023-04-09T08:32:55;11.90;99.90
74822;DHT22;63353;48.702;8.884;2023-04-09T08:35:20;11.90;99.90
74822;DHT22;63353;48.702;8.884;2023-04-09T08:37:53;11.60;99.90
74822;DHT22;63353;48.702;8.884;2023-04-09T08:40:24;11.50;99.90
74822;DHT22;63353;48.702;8.884;2023-04-09T08:42:54;11.70;99.90
74822;DHT22;63353;48.702;8.884;2023-04-09T08:45:26;11.60;99.90
74822;DHT22;63353;48.702;8.884;2023-04-09T08:47:51;11.40;99.90
74822;DHT22;63353;48.702;8.884;2023-04-09T08:50:21;11.40;99.90
74822;DHT22;63353;48.702;8.884;2023-04-09T08:52:48;11.70;99.90
74822;DHT22;63353;48.702;8.884;2023-04-09T08:55:16;11.90;99.90
74822;DHT22;63353;48.702;8.884;2023-04-09T08:57:48;11.70;99.90
74822;DHT22;63353;48.702;8.884;2023-04-09T09:00:14;11.40;99.90
74822;DHT22;63353;48.702;8.884;2023-04-09T09:03:03;11.20;99.90
74822;DHT22;63353;48.702;8.884;2023-04-09T09:05:41;11.20;99.90
74822;DHT22;63353;48.702;8.884;2023-04-09T09:08:08;11.30;99.90
74822;DHT22;63353;48.702;8.884;2023-04-09T09:10:46;11.50;99.90
74822;DHT22;63353;48.702;8.884;2023-04-09T09:13:25;11.90;99.90
74822;DHT22;63353;48.702;8.884;2023-04-09T09:16:11;12.30;99.90
74822;DHT22;63353;48.702;8.884;2023-04-09T09:18:49;12.70;99.90
74822;DHT22;63353;48.702;8.884;2023-04-09T09:21:16;13.20;99.90
74822;DHT22;63353;48.702;8.884;2023-04-09T09:23:48;13.30;99.90
74822;DHT22;63353;48.702;8.884;2023-04-09T09:26:21;13.30;99.90
74822;DHT22;63353;48.702;8.884;2023-04-09T09:29:02;13.60;99.90
74822;DHT22;63353;48.702;8.884;2023-04-09T09:31:30;13.20;99.90
74822;DHT22;63353;48.702;8.884;2023-04-09T09:33:59;13.10;99.90
74822;DHT22;63353;48.702;8.884;2023-04-09T09:36:34;12.80;99.90
74822;DHT22;63353;48.702;8.884;2023-04-09T09:39:00;12.80;99.90
74822;DHT22;63353;48.702;8.884;2023-04-09T09:41:29;12.70;99.90
74822;DHT22;63353;48.702;8.884;2023-04-09T09:43:55;12.50;99.90
74822;DHT22;63353;48.702;8.884;2023-04-09T09:46:21;12.30;99.90
74822;DHT22;63353;48.702;8.884;2023-04-09T09:48:52;12.20;99.90
74822;DHT22;63353;48.702;8.884;2023-04-09T09:51:18;12.10;99.90
74822;DHT22;63353;48.702;8.884;2023-04-09T09:53:49;12.00;99.90
74822;DHT22;63353;48.702;8.884;2023-04-09T09:56:37;12.20;99.90
74822;DHT22;63353;48.702;8.884;2023-04-09T09:59:22;12.20;99.90
74822;DHT22;63353;48.702;8.884;2023-04-09T10:02:04;12.50;99.90
74822;DHT22;63353;48.702;8.884;2023-04-09T10:04:32;12.60;99.90
74822;DHT22;63353;48.702;8.884;2023-04-09T10:07:01;12.40;99.90
74822;DHT22;63353;48.702;8.884;2023-04-09T10:09:34;12.20;99.90
74822;DHT22;63353;48.702;8.884;2023-04-09T10:12:03;11.80;99.90
74822;DHT22;63353;48.702;8.884;2023-04-09T10:14:40;11.70;99.90
74822;DHT22;63353;48.702;8.884;2023-04-09T10:17:07;11.70;99.90
74822;DHT22;63353;48.702;8.884;2023-04-09T10:22:46;11.40;99.90
74822;DHT22;63353;48.702;8.884;2023-04-09T10:25:13;11.30;99.90
74822;DHT22;63353;48.702;8.884;2023-04-09T10:27:39;11.40;99.90
74822;DHT22;63353;48.702;8.884;2023-04-09T10:33:15;11.80;99.90
74822;DHT22;63353;48.702;8.884;2023-04-09T10:35:46;11.80;99.90
74822;DHT22;63353;48.702;8.884;2023-04-09T10:41:07;12.20;99.90
74822;DHT22;63353;48.702;8.884;2023-04-09T10:43:49;12.20;99.90
74822;DHT22;63353;48.702;8.884;2023-04-09T10:46:34;12.20;99.90
74822;DHT22;63353;48.702;8.884;2023-04-09T10:49:24;12.20;99.90
74822;DHT22;63353;48.702;8.884;2023-04-09T10:59:36;13.70;99.90
74822;DHT22;63353;48.702;8.884;2023-04-09T11:02:06;14.10;99.90
74822;DHT22;63353;48.702;8.884;2023-04-09T11:07:21;13.90;99.90
74822;DHT22;63353;48.702;8.884;2023-04-09T11:09:48;13.80;99.90
74822;DHT22;63353;48.702;8.884;2023-04-09T11:12:13;13.70;99.90
74822;DHT22;63353;48.702;8.884;2023-04-09T11:14:51;13.60;99.90
74822;DHT22;63353;48.702;8.884;2023-04-09T11:17:17;13.50;99.90
74822;DHT22;63353;48.702;8.884;2023-04-09T11:19:44;13.20;99.90
74822;DHT22;63353;48.702;8.884;2023-04-09T11:22:14;12.80;99.90
74822;DHT22;63353;48.702;8.884;2023-04-09T11:24:43;13.10;99.90
74822;DHT22;63353;48.702;8.884;2023-04-09T11:27:15;13.10;99.90
74822;DHT22;63353;48.702;8.884;2023-04-09T11:29:47;12.90;99.90
74822;DHT22;63353;48.702;8.884;2023-04-09T11:32:15;13.00;99.90
74822;DHT22;63353;48.702;8.884;2023-04-09T11:34:40;13.00;99.90
74822;DHT22;63353;48.702;8.884;2023-04-09T11:37:06;13.20;99.90
74822;DHT22;63353;48.702;8.884;2023-04-09T11:39:38;13.30;99.90
74822;DHT22;63353;48.702;8.884;2023-04-09T11:42:15;13.40;99.90
74822;DHT22;63353;48.702;8.884;2023-04-09T11:44:42;13.50;99.90
74822;DHT22;63353;48.702;8.884;2023-04-09T11:47:21;13.60;99.90
74822;DHT22;63353;48.702;8.884;2023-04-09T11:49:47;13.50;99.90
74822;DHT22;63353;48.702;8.884;2023-04-09T11:52:16;13.60;99.90
74822;DHT22;63353;48.702;8.884;2023-04-09T11:54:48;13.60;99.90
74822;DHT22;63353;48.702;8.884;2023-04-09T11:57:14;13.70;99.90
74822;DHT22;63353;48.702;8.884;2023-04-09T11:59:40;13.90;99.90
74822;DHT22;63353;48.702;8.884;2023-04-09T12:02:06;14.90;99.90
74822;DHT22;63353;48.702;8.884;2023-04-09T12:04:51;15.80;99.90
74822;DHT22;63353;48.702;8.884;2023-04-09T12:07:22;16.20;99.90
74822;DHT22;63353;48.702;8.884;2023-04-09T12:10:08;16.60;99.90
74822;DHT22;63353;48.702;8.884;2023-04-09T12:12:45;16.80;94.10
74822;DHT22;63353;48.702;8.884;2023-04-09T12:17:46;16.50;96.30
74822;DHT22;63353;48.702;8.884;2023-04-09T12:20:12;16.40;93.40
74822;DHT22;63353;48.702;8.884;2023-04-09T12:22:38;16.40;95.90
74822;DHT22;63353;48.702;8.884;2023-04-09T12:25:06;16.40;94.00
74822;DHT22;63353;48.702;8.884;2023-04-09T12:27:41;16.00;92.60
74822;DHT22;63353;48.702;8.884;2023-04-09T12:30:13;15.80;91.50
74822;DHT22;63353;48.702;8.884;2023-04-09T12:32:45;15.50;92.90
74822;DHT22;63353;48.702;8.884;2023-04-09T12:35:17;15.20;91.60
74822;DHT22;63353;48.702;8.884;2023-04-09T12:37:43;14.80;90.40
74822;DHT22;63353;48.702;8.884;2023-04-09T12:40:09;14.90;97.50
74822;DHT22;63353;48.702;8.884;2023-04-09T12:42:44;15.00;94.00
74822;DHT22;63353;48.702;8.884;2023-04-09T12:45:14;15.30;92.00
74822;DHT22;63353;48.702;8.884;2023-04-09T12:47:41;15.70;97.10
74822;DHT22;63353;48.702;8.884;2023-04-09T12:50:08;16.10;86.00
74822;DHT22;63353;48.702;8.884;2023-04-09T12:52:37;15.90;96.20
74822;DHT22;63353;48.702;8.884;2023-04-09T12:55:09;16.30;95.70
74822;DHT22;63353;48.702;8.884;2023-04-09T12:57:37;16.60;86.60
74822;DHT22;63353;48.702;8.884;2023-04-09T13:00:09;16.10;89.20
74822;DHT22;63353;48.702;8.884;2023-04-09T13:02:38;16.20;94.60
74822;DHT22;63353;48.702;8.884;2023-04-09T13:05:04;16.30;89.30
74822;DHT22;63353;48.702;8.884;2023-04-09T13:07:33;16.20;93.10
74822;DHT22;63353;48.702;8.884;2023-04-09T13:10:01;16.60;93.40
74822;DHT22;63353;48.702;8.884;2023-04-09T13:12:36;16.40;86.20
74822;DHT22;63353;48.702;8.884;2023-04-09T13:15:08;16.60;87.20
74822;DHT22;63353;48.702;8.884;2023-04-09T13:17:33;16.80;91.60
74822;DHT22;63353;48.702;8.884;2023-04-09T13:20:05;17.80;92.10
74822;DHT22;63353;48.702;8.884;2023-04-09T13:22:43;18.80;87.00
74822;DHT22;63353;48.702;8.884;2023-04-09T13:25:31;18.10;79.20
74822;DHT22;63353;48.702;8.884;2023-04-09T13:27:57;17.90;89.20
74822;DHT22;63353;48.702;8.884;2023-04-09T13:30:31;18.00;87.60
74822;DHT22;63353;48.702;8.884;2023-04-09T13:32:57;17.40;90.50
74822;DHT22;63353;48.702;8.884;2023-04-09T13:35:29;17.10;87.60
74822;DHT22;63353;48.702;8.884;2023-04-09T13:37:55;17.00;87.90
74822;DHT22;63353;48.702;8.884;2023-04-09T13:40:20;16.50;86.40
74822;DHT22;63353;48.702;8.884;2023-04-09T13:42:49;16.20;87.90
74822;DHT22;63353;48.702;8.884;2023-04-09T13:45:21;16.20;87.70
74822;DHT22;63353;48.702;8.884;2023-04-09T13:47:54;16.20;88.80
74822;DHT22;63353;48.702;8.884;2023-04-09T13:50:23;17.00;89.00
74822;DHT22;63353;48.702;8.884;2023-04-09T13:52:51;17.60;92.90
74822;DHT22;63353;48.702;8.884;2023-04-09T13:55:20;18.80;87.60
74822;DHT22;63353;48.702;8.884;2023-04-09T13:57:55;19.70;85.50
74822;DHT22;63353;48.702;8.884;2023-04-09T14:00:23;19.20;81.00
74822;DHT22;63353;48.702;8.884;2023-04-09T14:02:49;18.90;80.50
74822;DHT22;63353;48.702;8.884;2023-04-09T14:05:14;18.40;79.60
74822;DHT22;63353;48.702;8.884;2023-04-09T14:07:43;18.30;81.40
74822;DHT22;63353;48.702;8.884;2023-04-09T14:10:30;18.50;79.40
74822;DHT22;63353;48.702;8.884;2023-04-09T14:12:56;18.00;82.00
74822;DHT22;63353;48.702;8.884;2023-04-09T14:15:25;18.40;80.30
74822;DHT22;63353;48.702;8.884;2023-04-09T14:17:57;18.30;79.70
74822;DHT22;63353;48.702;8.884;2023-04-09T14:20:25;17.80;77.70
74822;DHT22;63353;48.702;8.884;2023-04-09T14:22:54;17.60;83.10
74822;DHT22;63353;48.702;8.884;2023-04-09T14:25:20;19.50;75.80
74822;DHT22;63353;48.702;8.884;2023-04-09T14:27:49;20.60;76.80
74822;DHT22;63353;48.702;8.884;2023-04-09T14:30:21;20.70;71.90
74822;DHT22;63353;48.702;8.884;2023-04-09T14:32:47;19.70;68.80
74822;DHT22;63353;48.702;8.884;2023-04-09T14:35:12;18.80;74.60
74822;DHT22;63353;48.702;8.884;2023-04-09T14:37:38;18.00;74.40
74822;DHT22;63353;48.702;8.884;2023-04-09T14:40:08;18.50;84.40
74822;DHT22;63353;48.702;8.884;2023-04-09T14:42:34;19.40;74.00
74822;DHT22;63353;48.702;8.884;2023-04-09T14:44:59;21.30;67.50
74822;DHT22;63353;48.702;8.884;2023-04-09T14:47:28;22.30;66.90
74822;DHT22;63353;48.702;8.884;2023-04-09T14:49:54;21.50;65.40
74822;DHT22;63353;48.702;8.884;2023-04-09T14:52:20;20.30;59.70
74822;DHT22;63353;48.702;8.884;2023-04-09T14:54:49;19.60;66.00
74822;DHT22;63353;48.702;8.884;2023-04-09T14:57:14;19.40;66.20
74822;DHT22;63353;48.702;8.884;2023-04-09T14:59:40;18.90;71.90
74822;DHT22;63353;48.702;8.884;2023-04-09T15:02:06;20.20;69.40
74822;DHT22;63353;48.702;8.884;2023-04-09T15:04:31;21.80;64.60
74822;DHT22;63353;48.702;8.884;2023-04-09T15:07:00;22.60;67.00
74822;DHT22;63353;48.702;8.884;2023-04-09T15:09:25;23.80;56.40
74822;DHT22;63353;48.702;8.884;2023-04-09T15:11:57;24.30;56.40
74822;DHT22;63353;48.702;8.884;2023-04-09T15:14:35;24.90;56.30
74822;DHT22;63353;48.702;8.884;2023-04-09T15:17:01;24.60;54.40
74822;DHT22;63353;48.702;8.884;2023-04-09T15:19:29;22.60;56.20
74822;DHT22;63353;48.702;8.884;2023-04-09T15:21:59;22.10;60.40
74822;DHT22;63353;48.702;8.884;2023-04-09T15:24:25;22.00;55.30
74822;DHT22;63353;48.702;8.884;2023-04-09T15:26:54;21.50;58.30
74822;DHT22;63353;48.702;8.884;2023-04-09T15:29:21;20.50;59.10
74822;DHT22;63353;48.702;8.884;2023-04-09T15:31:46;19.60;61.00
74822;DHT22;63353;48.702;8.884;2023-04-09T15:34:13;19.70;62.40
74822;DHT22;63353;48.702;8.884;2023-04-09T15:36:39;19.40;62.70
74822;DHT22;63353;48.702;8.884;2023-04-09T15:39:11;20.90;64.50
74822;DHT22;63353;48.702;8.884;2023-04-09T15:41:43;23.00;59.90
74822;DHT22;63353;48.702;8.884;2023-04-09T15:44:09;24.70;56.30
74822;DHT22;63353;48.702;8.884;2023-04-09T15:46:37;26.20;50.80
74822;DHT22;63353;48.702;8.884;2023-04-09T15:49:04;26.70;49.10
74822;DHT22;63353;48.702;8.884;2023-04-09T15:51:32;27.10;50.90
74822;DHT22;63353;48.702;8.884;2023-04-09T15:54:04;27.50;47.50
74822;DHT22;63353;48.702;8.884;2023-04-09T15:56:33;27.50;49.80
74822;DHT22;63353;48.702;8.884;2023-04-09T15:59:01;27.40;49.40
74822;DHT22;63353;48.702;8.884;2023-04-09T16:01:32;26.60;49.40
74822;DHT22;63353;48.702;8.884;2023-04-09T16:04:02;26.50;47.50
74822;DHT22;63353;48.702;8.884;2023-04-09T16:06:28;25.90;49.30
74822;DHT22;63353;48.702;8.884;2023-04-09T16:08:54;24.60;49.70
74822;DHT22;63353;48.702;8.884;2023-04-09T16:11:23;24.40;50.40
74822;DHT22;63353;48.702;8.884;2023-04-09T16:13:49;25.30;48.00
74822;DHT22;63353;48.702;8.884;2023-04-09T16:16:18;24.40;48.00
74822;DHT22;63353;48.702;8.884;2023-04-09T16:18:43;24.40;49.00
74822;DHT22;63353;48.702;8.884;2023-04-09T16:21:15;25.10;50.40
74822;DHT22;63353;48.702;8.884;2023-04-09T16:23:41;25.30;49.00
74822;DHT22;63353;48.702;8.884;2023-04-09T16:26:10;25.40;49.70
74822;DHT22;63353;48.702;8.884;2023-04-09T16:28:42;26.00;48.70